Arkansas City, KS

5:27 AM CDT on November 01, 2014 (GMT -0500)
Strother | Change Station
CLOSE
Current Station
Airport
Location: Winfield,
Elevation: 1158 ft
Nearby Weather Stations
Active Advisory: Freeze Warning

Elev 1158 ft 37.17 °N, 97.04 °W | Updated 33 minutes ago

Partly Cloudy
Partly Cloudy
29 °F
Feels Like 24 °F
N
5
Wind Variable Wind from ESE

Today
High -- | Low -- °F
--% Chance of Precip.
Yesterday
High -- | Low -- °F
Precip. -- in
7:52 AM 6:30 PM
Waxing Gibbous, 65% visible
Pressure 30.45 in
Visibility 10.0 miles
Clouds Clear
Windchill 24 °F
Dew Point 20 °F
Humidity 69%
Rainfall 0.00 in
Snow Depth Not available.
UV 0 out of 12
Pollen 1.60 out of 12
Air Quality Not available.
Flu Activity Not available.
METAR KWLD 010954Z AUTO 12004KT 10SM CLR M02/M07 A3043 RMK AO2 SLP311 T10171067

More Conditions Fewer Conditions

Pressure 30.45 in
Visibility 10.0 miles
Clouds Clear
Windchill 24 °F
Dew Point 20 °F
Humidity 69%
Rainfall 0.00 in
Snow Depth Not available.
UV 0 out of 12
Pollen 1.60 out of 12
Air Quality Not available.
Flu Activity Not available.
METAR KWLD 010954Z AUTO 12004KT 10SM CLR M02/M07 A3043 RMK AO2 SLP311 T10171067

More Conditions Fewer Conditions

10-Day Weather Forecast

Almanac

Astronomy

Nov. 01, 2014 Rise Set
Actual Time
Civil Twilight
Nautical Twilight
Astronomical Twilight
Moon
Length of Visible Light
Length of Day
Tomorrow will be .
, % of the Moon is Illuminated

Today's Extremes

State Highs State Lows

Community

WunderPhotos

Upload Photos

1,766,874 photos uploaded!

WunderBlogs® & News

Nearby

Air Quality

  Air Quality AQ Index Pollutant
Not available.

Snow Depth

Station Depth Elevation

Earthquake Activity

City Distance Mag. Time & Date
Minimum magnitude displayed is 2.5.

Coastal Water Temperatures

Place Temperature

Nearby Weather Stations